createdAt,value
2019-06-07T00:00:02.962Z,11.39
2019-06-07T00:00:40.479Z,11.39
2019-06-07T00:01:19.303Z,11.36
2019-06-07T00:01:54.663Z,11.41
2019-06-07T00:02:30.140Z,11.35
2019-06-07T00:03:09.275Z,11.33
2019-06-07T00:03:44.187Z,11.33
2019-06-07T00:04:21.475Z,11.30
2019-06-07T00:04:57.629Z,11.32
2019-06-07T00:05:33.925Z,11.37
2019-06-07T00:06:13.183Z,11.34
2019-06-07T00:06:47.862Z,11.34
2019-06-07T00:07:24.211Z,11.38
2019-06-07T00:08:07.697Z,11.37
2019-06-07T00:08:38.142Z,11.42
2019-06-07T00:09:17.096Z,11.42
2019-06-07T00:09:51.581Z,11.40
2019-06-07T00:10:36.777Z,11.40
2019-06-07T00:11:07.279Z,11.42
2019-06-07T00:11:43.415Z,11.40
2019-06-07T00:12:21.566Z,11.34
2019-06-07T00:13:00.617Z,11.36
2019-06-07T00:13:36.349Z,11.53
2019-06-07T00:14:14.660Z,11.55
2019-06-07T00:14:50.603Z,11.50
2019-06-07T00:15:28.926Z,11.50
2019-06-07T00:16:04.105Z,11.43
2019-06-07T00:16:40.181Z,11.39
2019-06-07T00:17:18.193Z,11.35
2019-06-07T00:17:54.228Z,11.32
2019-06-07T00:18:30.758Z,11.36
2019-06-07T00:19:07.197Z,11.37
2019-06-07T00:19:43.281Z,11.31
2019-06-07T00:20:23.435Z,11.26
2019-06-07T00:20:56.914Z,11.43
2019-06-07T00:22:19.644Z,11.34
2019-06-07T00:22:48.979Z,11.37
2019-06-07T00:23:25.662Z,11.37
2019-06-07T00:24:01.700Z,11.41
2019-06-07T00:24:37.186Z,11.38
2019-06-07T00:25:17.824Z,11.36
2019-06-07T00:25:51.568Z,11.36
2019-06-07T00:26:27.733Z,11.31
2019-06-07T00:27:03.789Z,11.33
2019-06-07T00:27:39.820Z,11.32
2019-06-07T00:28:17.311Z,11.29
2019-06-07T00:28:53.433Z,11.29
2019-06-07T00:29:29.891Z,11.29
2019-06-07T00:30:32.669Z,11.28
2019-06-07T00:30:51.701Z,11.25
2019-06-07T00:31:24.743Z,11.23
2019-06-07T00:32:01.043Z,11.19
2019-06-07T00:32:37.112Z,11.23
2019-06-07T00:33:16.911Z,11.34
2019-06-07T00:33:50.664Z,11.30
2019-06-07T00:34:27.007Z,11.27
2019-06-07T00:35:03.066Z,11.27
2019-06-07T00:35:38.555Z,11.16
2019-06-07T00:36:17.593Z,11.16
2019-06-07T00:36:52.848Z,11.10
2019-06-07T00:37:28.328Z,11.10
2019-06-07T00:38:04.894Z,11.07
2019-06-07T00:38:41.461Z,11.05
2019-06-07T00:39:21.897Z,11.04
2019-06-07T00:40:13.339Z,11.02
2019-06-07T00:40:32.556Z,11.02
2019-06-07T00:41:08.002Z,11.00
2019-06-07T00:41:44.397Z,11.04
2019-06-07T00:42:21.620Z,11.02
2019-06-07T00:42:57.708Z,11.02
2019-06-07T00:43:34.073Z,11.02
2019-06-07T00:44:10.181Z,11.04
2019-06-07T00:44:45.675Z,11.05
2019-06-07T00:45:24.483Z,11.05
2019-06-07T00:45:59.561Z,11.08
2019-06-07T00:46:34.996Z,11.08
2019-06-07T00:47:13.055Z,11.07
2019-06-07T00:47:49.647Z,11.07
2019-06-07T00:48:32.178Z,11.05
2019-06-07T00:49:03.287Z,11.05
2019-06-07T00:49:41.491Z,11.02
2019-06-07T00:50:20.430Z,11.01
2019-06-07T00:50:54.789Z,10.99
2019-06-07T00:51:49.636Z,11.04
2019-06-07T00:52:07.983Z,11.04
2019-06-07T00:53:14.434Z,11.03
2019-06-07T00:53:31.659Z,11.00
2019-06-07T00:54:00.046Z,11.00
2019-06-07T00:54:36.116Z,10.99
2019-06-07T00:55:17.434Z,10.96
2019-06-07T00:55:52.118Z,10.94
2019-06-07T00:56:28.181Z,11.03
2019-06-07T00:57:04.843Z,10.98
2019-06-07T00:57:40.606Z,10.97
2019-06-07T00:58:17.974Z,11.00
2019-06-07T00:59:10.801Z,10.94
2019-06-07T00:59:32.294Z,10.93
2019-06-07T01:00:09.472Z,10.95
2019-06-07T01:00:45.520Z,10.94
2019-06-07T01:01:23.346Z,10.88
2019-06-07T01:01:58.934Z,10.86
2019-06-07T01:02:34.980Z,10.87
2019-06-07T01:03:12.709Z,10.86
2019-06-07T01:03:49.237Z,10.84
2019-06-07T01:04:27.038Z,10.79
2019-06-07T01:05:02.995Z,10.76
2019-06-07T01:05:39.050Z,10.76
2019-06-07T01:06:15.081Z,10.78
2019-06-07T01:06:50.740Z,10.73
2019-06-07T01:07:27.627Z,10.75
2019-06-07T01:08:04.887Z,10.75
2019-06-07T01:08:40.329Z,10.78
2019-06-07T01:09:17.742Z,10.73
2019-06-07T01:09:53.983Z,10.73
2019-06-07T01:10:52.444Z,10.65
2019-06-07T01:11:07.272Z,10.67
2019-06-07T01:11:43.321Z,10.70
2019-06-07T01:12:20.186Z,10.73
2019-06-07T01:12:57.364Z,10.72
2019-06-07T01:13:33.407Z,10.66
2019-06-07T01:14:08.899Z,10.63
2019-06-07T01:14:45.030Z,10.62
2019-06-07T01:15:28.818Z,10.59
2019-06-07T01:16:02.162Z,10.55
2019-06-07T01:16:56.451Z,10.55
2019-06-07T01:17:39.199Z,10.57
2019-06-07T01:18:46.438Z,10.53
2019-06-07T01:19:22.259Z,10.48
2019-06-07T01:19:57.551Z,10.48
2019-06-07T01:20:34.129Z,10.43
2019-06-07T01:21:10.745Z,10.48
2019-06-07T01:21:46.298Z,10.47
2019-06-07T01:22:28.398Z,10.49
2019-06-07T01:23:00.702Z,10.46
2019-06-07T01:24:15.262Z,10.54
2019-06-07T01:24:51.731Z,10.51
2019-06-07T01:25:28.949Z,10.51
2019-06-07T01:26:05.375Z,10.50
2019-06-07T01:26:41.421Z,10.50
2019-06-07T01:27:18.404Z,10.48
2019-06-07T01:27:55.175Z,10.47
2019-06-07T01:28:31.335Z,10.52
2019-06-07T01:29:06.890Z,10.49
2019-06-07T01:29:43.001Z,10.53
2019-06-07T01:30:24.272Z,10.54
2019-06-07T01:30:57.153Z,10.49
2019-06-07T01:31:33.329Z,10.52
2019-06-07T01:32:09.410Z,10.64
2019-06-07T01:32:44.867Z,10.64
2019-06-07T01:33:25.663Z,10.68
2019-06-07T01:34:00.218Z,10.67
2019-06-07T01:34:35.805Z,10.67
2019-06-07T01:35:12.574Z,10.67
2019-06-07T01:35:49.472Z,10.57
2019-06-07T01:36:29.075Z,10.59
2019-06-07T01:37:03.157Z,10.56
2019-06-07T01:37:39.818Z,10.55
2019-06-07T01:38:17.174Z,10.48
2019-06-07T01:38:53.937Z,10.45
2019-06-07T01:39:31.843Z,10.47
2019-06-07T01:40:08.226Z,10.46
2019-06-07T01:40:44.317Z,10.42
2019-06-07T01:41:23.635Z,10.33
2019-06-07T01:41:58.061Z,10.33
2019-06-07T01:42:34.108Z,10.35
2019-06-07T01:43:10.172Z,10.35
2019-06-07T01:43:45.927Z,10.37
2019-06-07T01:44:27.348Z,10.37
2019-06-07T01:45:00.184Z,10.30
2019-06-07T01:45:36.111Z,10.31
2019-06-07T01:46:12.530Z,10.32
2019-06-07T01:46:48.611Z,10.30
2019-06-07T01:47:28.694Z,10.32
2019-06-07T01:48:02.772Z,10.32
2019-06-07T01:48:49.104Z,10.30
2019-06-07T01:49:16.942Z,10.31
2019-06-07T01:49:53.444Z,10.30
2019-06-07T01:50:29.790Z,10.31
2019-06-07T01:51:05.782Z,10.30
2019-06-07T01:51:41.820Z,10.30
2019-06-07T01:52:19.596Z,10.31
2019-06-07T01:52:55.083Z,10.38
2019-06-07T01:53:31.781Z,10.39
2019-06-07T01:54:58.318Z,10.31
2019-06-07T01:55:26.746Z,10.41
2019-06-07T01:56:01.419Z,10.36
2019-06-07T01:56:37.332Z,10.37
2019-06-07T01:57:30.988Z,10.29
2019-06-07T01:57:51.657Z,10.26
2019-06-07T01:58:29.133Z,10.20
2019-06-07T01:59:04.892Z,10.20
2019-06-07T01:59:41.155Z,10.37
2019-06-07T02:00:17.928Z,10.41
2019-06-07T02:00:54.027Z,10.46
2019-06-07T02:01:35.254Z,10.43
2019-06-07T02:02:07.333Z,10.47
2019-06-07T02:02:43.686Z,10.35
2019-06-07T02:03:22.298Z,10.42
2019-06-07T02:03:58.683Z,10.35
2019-06-07T02:04:34.768Z,10.30
2019-06-07T02:05:12.098Z,10.28
2019-06-07T02:05:47.969Z,10.27
2019-06-07T02:06:27.932Z,10.35
2019-06-07T02:07:02.171Z,10.30
2019-06-07T02:07:37.660Z,10.26
2019-06-07T02:08:14.717Z,10.23
2019-06-07T02:08:51.694Z,10.20
2019-06-07T02:09:30.110Z,10.21
2019-06-07T02:10:05.571Z,10.21
2019-06-07T02:10:41.636Z,10.21
2019-06-07T02:11:18.092Z,10.23
2019-06-07T02:11:55.017Z,10.21
2019-06-07T02:12:40.323Z,10.21
2019-06-07T02:13:08.644Z,10.22
2019-06-07T02:13:44.701Z,10.28
2019-06-07T02:14:23.496Z,10.24
2019-06-07T02:14:58.447Z,10.18
2019-06-07T02:15:36.715Z,10.22
2019-06-07T02:16:12.234Z,10.21
2019-06-07T02:16:47.834Z,10.20
2019-06-07T02:17:26.304Z,10.26
2019-06-07T02:18:01.695Z,10.39
2019-06-07T02:18:58.817Z,10.47
2019-06-07T02:19:15.745Z,10.54
2019-06-07T02:19:51.870Z,10.51
2019-06-07T02:20:33.502Z,10.37
2019-06-07T02:21:05.518Z,10.33
2019-06-07T02:21:41.647Z,10.40
2019-06-07T02:22:17.661Z,10.34
2019-06-07T02:22:54.039Z,10.28
2019-06-07T02:23:33.100Z,10.39
2019-06-07T02:24:07.588Z,10.29
2019-06-07T02:24:44.019Z,10.27
2019-06-07T02:25:43.630Z,10.26
2019-06-07T02:25:58.026Z,10.26
2019-06-07T02:26:34.078Z,10.33
2019-06-07T02:27:10.143Z,10.30
2019-06-07T02:27:45.583Z,10.29
2019-06-07T02:28:32.086Z,10.32
2019-06-07T02:29:00.448Z,10.29
2019-06-07T02:29:35.898Z,10.23
2019-06-07T02:30:59.462Z,10.23
2019-06-07T02:31:32.294Z,10.35
2019-06-07T02:32:05.654Z,10.21
2019-06-07T02:32:42.415Z,10.21
2019-06-07T02:33:18.066Z,10.20
2019-06-07T02:33:54.382Z,10.25
2019-06-07T02:34:35.883Z,10.36
2019-06-07T02:35:08.127Z,10.35
2019-06-07T02:35:44.171Z,10.26
2019-06-07T02:36:25.656Z,10.19
2019-06-07T02:36:58.292Z,10.16
2019-06-07T02:37:36.940Z,10.22
2019-06-07T02:38:12.765Z,10.18
2019-06-07T02:38:48.600Z,10.19
2019-06-07T02:39:26.192Z,10.17
2019-06-07T02:40:03.604Z,10.20
2019-06-07T02:40:39.117Z,10.13
2019-06-07T02:41:15.170Z,10.17
2019-06-07T02:41:51.897Z,10.16
2019-06-07T02:42:30.805Z,10.15
2019-06-07T02:43:06.308Z,10.18
2019-06-07T02:43:42.382Z,10.20
2019-06-07T02:44:18.304Z,10.15
2019-06-07T02:44:54.713Z,10.20
2019-06-07T02:45:42.046Z,10.18
2019-06-07T02:46:27.676Z,10.16
2019-06-07T02:46:51.906Z,10.18
2019-06-07T02:47:31.237Z,10.13
2019-06-07T02:48:05.280Z,10.07
2019-06-07T02:48:41.426Z,9.99
2019-06-07T02:49:17.517Z,10.04
2019-06-07T02:49:53.223Z,10.04
2019-06-07T02:50:35.407Z,10.07
2019-06-07T02:51:07.242Z,9.99
2019-06-07T02:51:42.677Z,9.97
2019-06-07T02:52:19.063Z,10.16
2019-06-07T02:52:55.486Z,10.18
2019-06-07T02:53:39.536Z,10.25
2019-06-07T02:54:08.814Z,10.30
2019-06-07T02:54:44.891Z,10.24
2019-06-07T02:55:21.243Z,10.32
2019-06-07T02:56:35.372Z,10.18
2019-06-07T02:56:46.620Z,10.09
2019-06-07T02:57:12.504Z,10.01
2019-06-07T02:57:48.578Z,10.07
2019-06-07T02:58:26.202Z,10.10
2019-06-07T02:59:02.069Z,10.08
2019-06-07T03:00:04.411Z,10.10
2019-06-07T03:00:41.826Z,10.05
2019-06-07T03:01:08.483Z,10.13
2019-06-07T03:01:41.776Z,10.16
2019-06-07T03:02:15.402Z,10.11
2019-06-07T03:02:51.531Z,9.72
2019-06-07T03:03:30.390Z,10.01
2019-06-07T03:04:06.171Z,9.97
2019-06-07T03:04:44.493Z,10.11
2019-06-07T03:05:20.174Z,10.12
2019-06-07T03:05:57.822Z,10.22
2019-06-07T03:06:39.292Z,10.13
2019-06-07T03:07:13.546Z,10.02
2019-06-07T03:07:50.158Z,10.08
2019-06-07T03:08:28.264Z,10.09
2019-06-07T03:09:07.394Z,10.09
2019-06-07T03:09:44.302Z,10.10
2019-06-07T03:10:20.245Z,9.92
2019-06-07T03:10:57.440Z,9.79
2019-06-07T03:11:36.052Z,9.87
2019-06-07T03:12:14.431Z,9.93
2019-06-07T03:12:51.913Z,9.98
2019-06-07T03:13:30.097Z,10.08
2019-06-07T03:14:06.376Z,9.96
2019-06-07T03:14:44.977Z,9.89
2019-06-07T03:15:35.513Z,9.84
2019-06-07T03:16:00.772Z,9.96
2019-06-07T03:16:43.076Z,9.98
2019-06-07T03:17:38.390Z,9.88
2019-06-07T03:18:36.402Z,9.77
2019-06-07T03:19:16.507Z,9.72
2019-06-07T03:19:55.709Z,9.79
2019-06-07T03:20:35.093Z,9.69
2019-06-07T03:21:15.460Z,9.75
2019-06-07T03:21:54.689Z,9.86
2019-06-07T03:22:37.982Z,9.76
2019-06-07T03:23:11.316Z,9.70
2019-06-07T03:23:48.116Z,9.85
2019-06-07T03:24:30.061Z,9.75
2019-06-07T03:25:05.398Z,9.73
2019-06-07T03:25:43.864Z,9.75
2019-06-07T03:26:21.585Z,9.84
2019-06-07T03:27:48.271Z,9.70
2019-06-07T03:28:14.089Z,9.67
2019-06-07T03:28:50.364Z,9.83
2019-06-07T03:29:28.830Z,9.72
2019-06-07T03:30:35.265Z,9.76
2019-06-07T03:31:00.790Z,9.72
2019-06-07T03:31:20.819Z,9.82
2019-06-07T03:31:56.922Z,9.86
2019-06-07T03:32:36.865Z,9.83
2019-06-07T03:33:10.414Z,9.83
2019-06-07T03:33:46.510Z,9.76
2019-06-07T03:34:22.473Z,9.77
2019-06-07T03:34:59.498Z,9.84
2019-06-07T03:35:37.490Z,9.75
2019-06-07T03:36:23.774Z,9.70
2019-06-07T03:36:52.002Z,9.71
2019-06-07T03:37:30.758Z,9.64
2019-06-07T03:38:05.373Z,9.72
2019-06-07T03:38:42.077Z,9.70
2019-06-07T03:39:18.217Z,9.70
2019-06-07T03:39:54.289Z,9.70
2019-06-07T03:40:31.669Z,9.64
2019-06-07T03:41:08.553Z,9.68
2019-06-07T03:42:04.646Z,9.70
2019-06-07T03:42:22.027Z,9.75
2019-06-07T03:42:58.212Z,9.74
2019-06-07T03:43:36.654Z,9.69
2019-06-07T03:44:11.837Z,9.80
2019-06-07T03:44:48.207Z,9.75
2019-06-07T03:45:24.317Z,9.70
2019-06-07T03:46:00.422Z,9.74
2019-06-07T03:46:39.008Z,9.68
2019-06-07T03:47:13.664Z,9.65
2019-06-07T03:47:49.742Z,9.64
2019-06-07T03:48:28.334Z,9.73
2019-06-07T03:49:03.872Z,9.80
2019-06-07T03:49:42.594Z,9.71
2019-06-07T03:50:18.317Z,9.71
2019-06-07T03:51:04.166Z,9.71
2019-06-07T03:51:32.906Z,9.72
2019-06-07T03:52:10.250Z,9.76
2019-06-07T03:52:45.724Z,9.69
2019-06-07T03:53:22.551Z,9.67
2019-06-07T03:53:58.634Z,9.67
2019-06-07T03:54:36.936Z,9.73
2019-06-07T03:55:12.179Z,9.73
2019-06-07T03:55:48.543Z,9.69
2019-06-07T03:56:24.406Z,9.74
2019-06-07T03:57:00.823Z,9.64
2019-06-07T03:58:29.122Z,9.81
2019-06-07T03:58:32.655Z,9.85
2019-06-07T03:58:52.417Z,9.88
2019-06-07T03:59:31.262Z,9.93
2019-06-07T04:00:06.429Z,9.87
2019-06-07T04:00:43.578Z,9.89
2019-06-07T04:01:19.836Z,9.97
2019-06-07T04:01:55.750Z,10.06
2019-06-07T04:02:33.822Z,10.14
2019-06-07T04:03:09.636Z,10.04
2019-06-07T04:03:51.477Z,10.06
2019-06-07T04:04:23.075Z,10.00
2019-06-07T04:05:00.020Z,10.06
2019-06-07T04:05:40.271Z,10.08
2019-06-07T04:06:13.926Z,10.00
2019-06-07T04:06:50.554Z,9.86
2019-06-07T04:07:28.970Z,9.88
2019-06-07T04:08:04.195Z,9.89
2019-06-07T04:08:42.127Z,9.82
2019-06-07T04:09:17.966Z,9.91
2019-06-07T04:09:54.140Z,9.85
2019-06-07T04:10:51.967Z,9.82
2019-06-07T04:11:07.904Z,9.89
2019-06-07T04:11:44.398Z,10.02
2019-06-07T04:12:21.209Z,9.90
2019-06-07T04:12:56.774Z,10.00
2019-06-07T04:13:34.822Z,9.91
2019-06-07T04:14:10.654Z,10.06
2019-06-07T04:14:46.394Z,10.09
2019-06-07T04:15:23.163Z,10.04
2019-06-07T04:15:59.263Z,10.14
2019-06-07T04:16:38.807Z,10.00
2019-06-07T04:17:12.677Z,10.09
2019-06-07T04:18:01.532Z,10.09
2019-06-07T04:18:26.510Z,10.15
2019-06-07T04:19:02.975Z,10.26
2019-06-07T04:19:43.513Z,10.19
2019-06-07T04:20:17.295Z,10.13
2019-06-07T04:20:53.677Z,10.16
2019-06-07T04:21:31.938Z,10.03
2019-06-07T04:22:07.991Z,10.03
2019-06-07T04:22:44.477Z,10.15
2019-06-07T04:23:31.283Z,10.20
2019-06-07T04:23:57.893Z,10.12
2019-06-07T04:24:38.491Z,10.23
2019-06-07T04:25:13.112Z,10.32
2019-06-07T04:25:48.982Z,10.44
2019-06-07T04:26:25.204Z,10.43
2019-06-07T04:27:01.435Z,10.32
2019-06-07T04:27:39.241Z,10.45
2019-06-07T04:28:15.075Z,10.49
2019-06-07T04:29:41.093Z,10.60
2019-06-07T04:30:08.429Z,10.52
2019-06-07T04:30:45.227Z,10.50
2019-06-07T04:31:22.250Z,10.43
2019-06-07T04:31:58.511Z,10.52
2019-06-07T04:32:37.077Z,10.46
2019-06-07T04:33:12.627Z,10.53
2019-06-07T04:33:49.659Z,10.49
2019-06-07T04:34:26.189Z,10.50
2019-06-07T04:35:01.805Z,10.49
2019-06-07T04:35:40.146Z,10.53
2019-06-07T04:36:17.403Z,10.48
2019-06-07T04:36:58.985Z,10.58
2019-06-07T04:37:35.669Z,10.56
2019-06-07T04:38:12.080Z,10.57
2019-06-07T04:38:50.351Z,10.57
2019-06-07T04:39:26.607Z,10.59
2019-06-07T04:40:03.121Z,10.75
2019-06-07T04:40:42.459Z,10.64
2019-06-07T04:41:19.246Z,10.52
2019-06-07T04:41:58.072Z,10.66
2019-06-07T04:42:39.173Z,10.87
2019-06-07T04:43:13.943Z,10.87
2019-06-07T04:43:51.478Z,10.80
2019-06-07T04:44:27.303Z,10.82
2019-06-07T04:45:05.216Z,10.67
2019-06-07T04:45:50.370Z,10.57
2019-06-07T04:46:20.302Z,10.54
2019-06-07T04:46:58.463Z,10.55
2019-06-07T04:47:39.608Z,10.49
2019-06-07T04:48:14.684Z,10.45
2019-06-07T04:48:52.794Z,10.45
2019-06-07T04:49:30.548Z,10.39
2019-06-07T04:50:07.279Z,10.47
2019-06-07T04:50:44.117Z,10.45
2019-06-07T04:51:22.355Z,10.46
2019-06-07T04:51:58.565Z,10.53
2019-06-07T04:52:39.865Z,10.65
2019-06-07T04:53:13.173Z,10.61
2019-06-07T04:53:48.658Z,10.57
2019-06-07T04:54:24.919Z,10.54
2019-06-07T04:55:01.529Z,10.52
2019-06-07T04:55:39.938Z,10.53
2019-06-07T04:56:15.208Z,10.55
2019-06-07T04:56:51.528Z,10.61
2019-06-07T04:57:27.179Z,10.90
2019-06-07T04:58:03.625Z,10.80
2019-06-07T04:58:41.329Z,10.92
2019-06-07T05:00:00.350Z,10.80
2019-06-07T05:00:12.953Z,10.82
2019-06-07T05:00:49.801Z,10.73
2019-06-07T05:01:26.768Z,10.76
2019-06-07T05:01:49.969Z,10.72
2019-06-07T05:02:26.566Z,10.76
2019-06-07T05:03:02.490Z,10.82
2019-06-07T05:03:43.807Z,10.95
2019-06-07T05:04:17.178Z,10.98
2019-06-07T05:04:52.931Z,10.98
2019-06-07T05:05:29.334Z,10.98
2019-06-07T05:06:05.599Z,11.07
2019-06-07T05:06:42.469Z,10.99
2019-06-07T05:07:19.222Z,11.03
2019-06-07T05:07:55.841Z,11.02
2019-06-07T05:08:33.455Z,11.00
2019-06-07T05:09:09.790Z,11.02
2019-06-07T05:09:46.686Z,11.02
2019-06-07T05:10:22.436Z,11.06
2019-06-07T05:10:59.244Z,10.97
2019-06-07T05:11:36.461Z,10.98
2019-06-07T05:12:12.508Z,11.11
2019-06-07T05:12:48.915Z,11.16
2019-06-07T05:13:25.065Z,11.17
2019-06-07T05:14:00.934Z,11.17
2019-06-07T05:14:39.110Z,11.20
2019-06-07T05:15:15.498Z,11.32
2019-06-07T05:15:51.142Z,11.50
2019-06-07T05:16:27.930Z,11.66
2019-06-07T05:17:04.769Z,11.62
2019-06-07T05:17:43.433Z,11.55
2019-06-07T05:18:18.104Z,11.65
2019-06-07T05:18:54.424Z,11.52
2019-06-07T05:19:30.574Z,11.52
2019-06-07T05:20:07.654Z,11.54
2019-06-07T05:20:44.723Z,11.50
2019-06-07T05:21:20.870Z,11.60
2019-06-07T05:22:04.139Z,11.62
2019-06-07T05:22:38.894Z,11.72
2019-06-07T05:23:59.263Z,11.67
2019-06-07T05:24:06.269Z,11.63
2019-06-07T05:24:28.083Z,11.64
2019-06-07T05:25:03.690Z,11.80
2019-06-07T05:25:44.493Z,11.80
2019-06-07T05:26:18.642Z,11.80
2019-06-07T05:26:54.415Z,11.88
2019-06-07T05:27:33.582Z,11.87
2019-06-07T05:28:08.614Z,11.76
2019-06-07T05:28:44.115Z,11.76
2019-06-07T05:29:20.661Z,11.94
2019-06-07T05:30:09.446Z,11.95
2019-06-07T05:31:03.101Z,11.93
2019-06-07T05:31:14.783Z,11.89
2019-06-07T05:31:51.644Z,11.89
2019-06-07T05:32:27.912Z,11.86
2019-06-07T05:33:04.853Z,11.87
2019-06-07T05:33:43.571Z,11.87
2019-06-07T05:34:18.709Z,11.90
2019-06-07T05:34:54.936Z,11.94
2019-06-07T05:35:33.167Z,12.09
2019-06-07T05:36:08.661Z,12.23
2019-06-07T05:36:45.271Z,12.23
2019-06-07T05:37:22.415Z,12.10
2019-06-07T05:37:58.163Z,12.03
2019-06-07T05:38:36.095Z,12.03
2019-06-07T05:39:12.094Z,12.22
2019-06-07T05:39:47.654Z,12.22
2019-06-07T05:40:34.899Z,12.43
2019-06-07T05:41:11.535Z,12.41
2019-06-07T05:41:47.467Z,12.48
2019-06-07T05:42:24.417Z,12.53
2019-06-07T05:43:00.502Z,12.40
2019-06-07T05:43:39.301Z,12.34
2019-06-07T05:44:15.223Z,12.35
2019-06-07T05:44:52.344Z,12.47
2019-06-07T05:45:37.704Z,12.48
2019-06-07T05:46:11.829Z,12.45
2019-06-07T05:46:47.896Z,12.57
2019-06-07T05:47:23.537Z,12.52
2019-06-07T05:47:59.728Z,12.61
2019-06-07T05:48:37.286Z,12.57
2019-06-07T05:49:13.966Z,12.58
2019-06-07T05:49:50.334Z,12.60
2019-06-07T05:50:44.822Z,12.55
2019-06-07T05:51:03.975Z,12.53
2019-06-07T05:51:43.317Z,12.60
2019-06-07T05:52:18.415Z,12.66
2019-06-07T05:52:55.602Z,12.68
2019-06-07T05:53:32.862Z,12.77
2019-06-07T05:54:08.990Z,12.84
2019-06-07T05:54:46.804Z,12.75
2019-06-07T05:55:23.119Z,12.95
2019-06-07T05:56:00.136Z,13.05
2019-06-07T05:56:39.052Z,13.11
2019-06-07T05:57:14.749Z,13.11
2019-06-07T05:57:51.210Z,13.01
2019-06-07T05:58:27.281Z,13.21
2019-06-07T05:59:03.342Z,13.07
2019-06-07T05:59:43.611Z,13.08
2019-06-07T06:00:17.913Z,13.09
2019-06-07T06:00:54.185Z,13.13
2019-06-07T06:01:58.955Z,13.19
2019-06-07T06:02:21.817Z,13.22
2019-06-07T06:03:04.094Z,13.13
2019-06-07T06:03:24.791Z,13.07
2019-06-07T06:04:01.017Z,13.11
2019-06-07T06:04:40.281Z,13.11
2019-06-07T06:05:32.463Z,13.12
2019-06-07T06:05:55.482Z,13.25
2019-06-07T06:06:33.912Z,13.45
2019-06-07T06:07:10.618Z,13.46
2019-06-07T06:07:50.456Z,13.55
2019-06-07T06:08:25.077Z,13.51
2019-06-07T06:09:13.425Z,13.49
2019-06-07T06:09:40.618Z,13.59
2019-06-07T06:10:16.691Z,13.59
2019-06-07T06:10:53.320Z,13.63
2019-06-07T06:11:46.828Z,13.54
2019-06-07T06:12:08.466Z,13.63
2019-06-07T06:12:51.267Z,13.53
2019-06-07T06:13:21.834Z,13.52
2019-06-07T06:14:07.279Z,13.54
2019-06-07T06:14:39.597Z,13.61
2019-06-07T06:15:15.069Z,13.65
2019-06-07T06:16:01.383Z,13.54
2019-06-07T06:16:30.659Z,13.59
2019-06-07T06:17:06.957Z,13.61
2019-06-07T06:17:48.881Z,13.62
2019-06-07T06:18:22.100Z,13.61
2019-06-07T06:18:57.616Z,13.57
2019-06-07T06:19:33.696Z,13.74
2019-06-07T06:20:10.771Z,13.83
2019-06-07T06:21:09.476Z,13.72
2019-06-07T06:21:25.361Z,13.82
2019-06-07T06:22:02.255Z,13.91
2019-06-07T06:22:43.462Z,14.01
2019-06-07T06:23:16.160Z,14.09
2019-06-07T06:23:54.053Z,14.07
2019-06-07T06:24:30.392Z,14.01
2019-06-07T06:25:53.706Z,13.97
2019-06-07T06:26:23.604Z,13.92
2019-06-07T06:27:18.917Z,13.78
2019-06-07T06:28:07.842Z,13.74
2019-06-07T06:28:16.561Z,13.79
2019-06-07T06:28:53.433Z,13.83
2019-06-07T06:29:30.358Z,13.95
2019-06-07T06:30:07.771Z,14.08
2019-06-07T06:30:47.494Z,14.18
2019-06-07T06:31:22.689Z,14.19
2019-06-07T06:32:49.339Z,14.10
2019-06-07T06:33:27.414Z,14.13
2019-06-07T06:33:54.047Z,14.02
2019-06-07T06:34:31.087Z,14.04
2019-06-07T06:35:08.178Z,14.01
2019-06-07T06:35:47.490Z,14.07
2019-06-07T06:36:22.048Z,14.18
2019-06-07T06:36:59.085Z,14.13
2019-06-07T06:37:35.251Z,14.09
2019-06-07T06:38:12.011Z,14.03
2019-06-07T06:38:49.758Z,14.27
2019-06-07T06:39:26.236Z,14.23
2019-06-07T06:40:03.001Z,14.30
2019-06-07T06:40:44.276Z,14.40
2019-06-07T06:41:17.597Z,14.39
2019-06-07T06:42:01.681Z,14.47
2019-06-07T06:42:32.604Z,14.53
2019-06-07T06:43:08.825Z,14.63
2019-06-07T06:43:49.091Z,14.77
2019-06-07T06:44:24.372Z,14.70
2019-06-07T06:45:00.497Z,14.52
2019-06-07T06:45:37.683Z,14.43
2019-06-07T06:46:31.832Z,14.52
2019-06-07T06:46:57.593Z,14.68
2019-06-07T06:47:31.451Z,14.70
2019-06-07T06:48:07.711Z,14.89
2019-06-07T06:48:48.248Z,14.94
2019-06-07T06:49:22.264Z,14.63
2019-06-07T06:49:58.641Z,14.55
2019-06-07T06:50:35.075Z,14.56
2019-06-07T06:51:11.657Z,14.60
2019-06-07T06:51:53.263Z,14.82
2019-06-07T06:52:25.545Z,14.91
2019-06-07T06:53:01.655Z,15.01
2019-06-07T06:53:40.417Z,15.06
2019-06-07T06:54:16.471Z,14.86
2019-06-07T06:54:59.945Z,15.11
2019-06-07T06:55:31.414Z,15.13
2019-06-07T06:56:06.868Z,15.29
2019-06-07T06:56:45.144Z,15.36
2019-06-07T06:57:21.848Z,15.44
2019-06-07T06:57:58.046Z,15.53
2019-06-07T06:59:18.393Z,15.34
2019-06-07T06:59:37.271Z,15.31
2019-06-07T06:59:52.442Z,15.45
2019-06-07T07:00:56.825Z,15.59
2019-06-07T07:01:26.877Z,15.65
2019-06-07T07:02:03.035Z,15.94
2019-06-07T07:03:26.978Z,15.89
2019-06-07T07:04:11.031Z,15.66
2019-06-07T07:04:33.767Z,15.60
2019-06-07T07:05:13.294Z,15.55
2019-06-07T07:05:54.435Z,15.59
2019-06-07T07:06:29.585Z,15.69
2019-06-07T07:07:05.742Z,15.83
2019-06-07T07:07:42.752Z,15.84
2019-06-07T07:08:19.045Z,16.04
2019-06-07T07:08:55.223Z,16.07
2019-06-07T07:09:30.736Z,16.17
2019-06-07T07:10:07.943Z,16.29
2019-06-07T07:10:45.985Z,16.12
2019-06-07T07:11:23.327Z,16.12
2019-06-07T07:12:10.931Z,16.22
2019-06-07T07:12:38.809Z,16.22
2019-06-07T07:13:15.059Z,15.97
2019-06-07T07:13:56.175Z,16.08
2019-06-07T07:14:30.763Z,16.28
2019-06-07T07:15:07.132Z,16.15
2019-06-07T07:15:46.838Z,16.20
2019-06-07T07:16:21.844Z,16.36
2019-06-07T07:16:58.109Z,16.35
2019-06-07T07:17:52.700Z,16.49
2019-06-07T07:18:12.898Z,16.59
2019-06-07T07:18:51.713Z,16.51
2019-06-07T07:19:26.829Z,16.60
2019-06-07T07:20:03.576Z,16.30
2019-06-07T07:20:39.613Z,15.98
2019-06-07T07:21:16.233Z,15.95
2019-06-07T07:21:55.218Z,16.03
2019-06-07T07:22:30.781Z,16.06
2019-06-07T07:23:07.104Z,16.14
2019-06-07T07:24:05.456Z,15.93
2019-06-07T07:24:22.366Z,15.81
2019-06-07T07:24:59.445Z,15.79
2019-06-07T07:25:35.513Z,15.74
2019-06-07T07:26:11.830Z,15.81
2019-06-07T07:26:50.048Z,15.82
2019-06-07T07:27:25.757Z,15.77
2019-06-07T07:28:01.314Z,15.74
2019-06-07T07:28:37.365Z,15.65
2019-06-07T07:29:13.710Z,15.52
2019-06-07T07:29:56.436Z,15.62
2019-06-07T07:30:44.897Z,15.67
2019-06-07T07:31:21.139Z,15.53
2019-06-07T07:31:56.841Z,15.40
2019-06-07T07:32:32.849Z,15.23
2019-06-07T07:33:09.132Z,15.19
2019-06-07T07:34:27.364Z,15.17
2019-06-07T07:34:33.502Z,15.05
2019-06-07T07:35:00.985Z,15.14
2019-06-07T07:35:36.523Z,15.33
2019-06-07T07:36:35.344Z,15.35
2019-06-07T07:36:59.089Z,15.32
2019-06-07T07:37:30.419Z,15.27
2019-06-07T07:38:06.471Z,15.20
2019-06-07T07:38:45.602Z,15.26
2019-06-07T07:39:20.160Z,15.39
2019-06-07T07:40:01.724Z,15.43
2019-06-07T07:40:56.966Z,15.51
2019-06-07T07:41:15.614Z,15.43
2019-06-07T07:42:13.855Z,15.43
2019-06-07T07:42:28.340Z,15.35
2019-06-07T07:43:04.187Z,15.48
2019-06-07T07:43:40.227Z,15.57
2019-06-07T07:44:16.681Z,15.59
2019-06-07T07:44:55.130Z,15.64
2019-06-07T07:45:31.026Z,15.84
2019-06-07T07:46:28.615Z,15.85
2019-06-07T07:46:46.507Z,15.78
2019-06-07T07:47:23.207Z,15.83
2019-06-07T07:48:14.602Z,15.73
2019-06-07T07:48:37.108Z,15.74
2019-06-07T07:49:13.168Z,15.72
2019-06-07T07:49:52.982Z,15.81
2019-06-07T07:50:26.789Z,15.88
2019-06-07T07:51:03.741Z,15.99
2019-06-07T07:51:39.791Z,15.85
2019-06-07T07:52:15.236Z,15.79
2019-06-07T07:52:56.043Z,15.81
2019-06-07T07:53:47.823Z,15.80
2019-06-07T07:54:10.684Z,15.78
2019-06-07T07:54:46.742Z,15.79
2019-06-07T07:55:23.345Z,15.78
2019-06-07T07:56:00.350Z,15.77
2019-06-07T07:56:36.739Z,15.80
2019-06-07T07:57:12.793Z,15.86
2019-06-07T07:57:49.449Z,15.79
2019-06-07T07:58:27.260Z,15.81
2019-06-07T07:59:03.910Z,15.62
2019-06-07T07:59:42.114Z,15.76
2019-06-07T08:00:49.282Z,15.77
2019-06-07T08:01:07.702Z,15.82
2019-06-07T08:01:33.650Z,15.86
2019-06-07T08:02:09.679Z,15.75
2019-06-07T08:02:48.837Z,15.79
2019-06-07T08:03:23.460Z,15.84
2019-06-07T08:04:00.084Z,15.85
2019-06-07T08:05:12.672Z,15.83
2019-06-07T08:05:23.332Z,15.67